createdAt,value
2023-05-02T00:01:28.332Z,0
2023-05-02T00:06:28.383Z,0
2023-05-02T00:11:28.340Z,0
2023-05-02T00:16:28.347Z,0
2023-05-02T00:21:28.397Z,0
2023-05-02T00:26:28.381Z,0
2023-05-02T00:31:28.342Z,0
2023-05-02T00:36:28.537Z,0
2023-05-02T00:41:28.342Z,0
2023-05-02T00:46:28.360Z,0
2023-05-02T00:51:28.388Z,0
2023-05-02T00:56:28.314Z,0
2023-05-02T01:01:28.416Z,0
2023-05-02T01:06:28.416Z,0
2023-05-02T01:11:28.380Z,0
2023-05-02T01:16:28.396Z,0
2023-05-02T01:21:28.366Z,0
2023-05-02T01:26:28.345Z,0
2023-05-02T01:31:28.372Z,0
2023-05-02T01:36:28.399Z,0
2023-05-02T01:41:28.394Z,0
2023-05-02T01:46:28.400Z,0
2023-05-02T01:51:28.337Z,0
2023-05-02T01:56:28.384Z,0
2023-05-02T02:01:28.425Z,0
2023-05-02T02:06:28.514Z,0
2023-05-02T02:11:28.360Z,0
2023-05-02T02:16:28.434Z,0
2023-05-02T02:21:28.335Z,0
2023-05-02T02:26:28.376Z,0
2023-05-02T02:31:28.370Z,0
2023-05-02T02:36:28.424Z,0
2023-05-02T02:41:28.349Z,0
2023-05-02T02:46:28.460Z,0
2023-05-02T02:51:28.333Z,0
2023-05-02T02:56:28.374Z,0
2023-05-02T03:01:28.439Z,0
2023-05-02T03:06:28.422Z,0
2023-05-02T03:11:29.508Z,0
2023-05-02T03:16:28.462Z,0
2023-05-02T03:21:28.384Z,0
2023-05-02T03:26:28.492Z,0
2023-05-02T03:31:28.405Z,0
2023-05-02T03:36:28.357Z,0
2023-05-02T03:41:28.355Z,0
2023-05-02T03:46:28.403Z,257
2023-05-02T03:51:28.350Z,260
2023-05-02T03:56:28.395Z,263
2023-05-02T04:01:28.417Z,268
2023-05-02T04:06:28.411Z,271
2023-05-02T04:11:28.375Z,276
2023-05-02T04:16:28.417Z,281
2023-05-02T04:21:28.403Z,283
2023-05-02T04:26:28.416Z,290
2023-05-02T04:31:28.411Z,303
2023-05-02T04:36:28.471Z,331
2023-05-02T04:41:28.375Z,382
2023-05-02T04:46:28.390Z,409
2023-05-02T04:51:28.394Z,428
2023-05-02T04:56:28.377Z,423
2023-05-02T05:01:28.523Z,418
2023-05-02T05:06:28.480Z,453
2023-05-02T05:11:28.370Z,429
2023-05-02T05:16:28.378Z,491
2023-05-02T05:21:28.383Z,518
2023-05-02T05:26:28.467Z,539
2023-05-02T05:31:28.486Z,571
2023-05-02T05:36:28.396Z,599
2023-05-02T05:41:28.395Z,628
2023-05-02T05:46:28.434Z,625
2023-05-02T05:51:28.369Z,646
2023-05-02T05:56:28.377Z,664
2023-05-02T06:01:28.403Z,667
2023-05-02T06:06:28.556Z,688
2023-05-02T06:11:29.698Z,737
2023-05-02T06:16:28.408Z,781
2023-05-02T06:21:28.386Z,760
2023-05-02T06:26:28.333Z,637
2023-05-02T06:31:28.371Z,508
2023-05-02T06:36:28.353Z,545
2023-05-02T06:41:28.377Z,610
2023-05-02T06:46:28.379Z,663
2023-05-02T06:51:28.505Z,701
2023-05-02T06:56:28.436Z,749
2023-05-02T07:01:28.440Z,732
2023-05-02T07:06:28.453Z,701
2023-05-02T07:11:28.427Z,644
2023-05-02T07:16:28.424Z,642
2023-05-02T07:21:28.404Z,696
2023-05-02T07:26:28.407Z,768
2023-05-02T07:31:28.635Z,732
2023-05-02T07:36:28.519Z,697
2023-05-02T07:41:28.451Z,663
2023-05-02T07:46:28.427Z,633
2023-05-02T07:51:28.404Z,598
2023-05-02T07:56:28.356Z,610
2023-05-02T08:01:28.402Z,669
2023-05-02T08:06:28.438Z,675
2023-05-02T08:11:28.404Z,705
2023-05-02T08:16:28.495Z,840
2023-05-02T08:21:28.425Z,878
2023-05-02T08:26:28.466Z,991
2023-05-02T08:31:28.406Z,1027
2023-05-02T08:36:28.448Z,997
2023-05-02T08:41:28.377Z,866
2023-05-02T08:46:28.455Z,783
2023-05-02T08:51:28.408Z,995
2023-05-02T08:56:28.465Z,762
2023-05-02T09:01:31.501Z,864
2023-05-02T09:06:31.434Z,1287
2023-05-02T09:11:31.420Z,1528
2023-05-02T09:16:31.445Z,1275
2023-05-02T09:21:31.403Z,1451
2023-05-02T09:26:31.790Z,2647
2023-05-02T09:31:50.299Z,7040
2023-05-02T09:36:31.419Z,5510
2023-05-02T09:41:31.455Z,8304
2023-05-02T09:46:31.434Z,6879
2023-05-02T09:51:31.426Z,10419
2023-05-02T09:56:31.388Z,11249
2023-05-02T10:01:31.505Z,9284
2023-05-02T10:06:31.463Z,10634
2023-05-02T10:11:31.474Z,10096
2023-05-02T10:16:31.459Z,12581
2023-05-02T10:21:31.438Z,14219
2023-05-02T10:26:31.438Z,7509
2023-05-02T10:31:31.470Z,4057
2023-05-02T10:36:31.406Z,2452
2023-05-02T10:41:31.473Z,2179
2023-05-02T10:46:31.456Z,3096
2023-05-02T10:51:31.375Z,2957
2023-05-02T10:56:31.460Z,13210
2023-05-02T11:01:31.448Z,3944
2023-05-02T11:06:31.437Z,2309
2023-05-02T11:11:31.393Z,2720
2023-05-02T11:16:31.474Z,2729
2023-05-02T11:21:31.606Z,2579
2023-05-02T11:26:31.443Z,2443
2023-05-02T11:31:31.447Z,1668
2023-05-02T11:36:31.434Z,1336
2023-05-02T11:41:31.427Z,1816
2023-05-02T11:46:31.431Z,1859
2023-05-02T11:51:31.564Z,2000
2023-05-02T11:56:31.455Z,1796
2023-05-02T12:01:31.473Z,1625
2023-05-02T12:06:31.473Z,1610
2023-05-02T12:11:31.397Z,1185
2023-05-02T12:16:31.484Z,1005
2023-05-02T12:21:31.478Z,856
2023-05-02T12:26:31.474Z,922
2023-05-02T12:31:31.633Z,843
2023-05-02T12:36:31.440Z,992
2023-05-02T12:41:31.411Z,1088
2023-05-02T12:46:31.881Z,1020
2023-05-02T12:51:31.501Z,956
2023-05-02T12:56:31.407Z,873
2023-05-02T13:01:31.536Z,1108
2023-05-02T13:06:31.631Z,1058
2023-05-02T13:11:31.505Z,1373
2023-05-02T13:16:31.626Z,1097
2023-05-02T13:21:31.475Z,888
2023-05-02T13:26:31.479Z,911
2023-05-02T13:31:31.542Z,1019
2023-05-02T13:36:31.458Z,1076
2023-05-02T13:41:31.466Z,1132
2023-05-02T13:46:31.476Z,965
2023-05-02T13:51:31.497Z,844
2023-05-02T13:56:31.471Z,820
2023-05-02T14:01:31.487Z,647
2023-05-02T14:06:31.537Z,632
2023-05-02T14:11:31.441Z,542
2023-05-02T14:16:31.551Z,545
2023-05-02T14:21:31.504Z,582
2023-05-02T14:26:31.508Z,707
2023-05-02T14:31:31.559Z,1134
2023-05-02T14:36:31.539Z,1068
2023-05-02T14:41:31.467Z,1339
2023-05-02T14:46:31.519Z,1259
2023-05-02T14:51:31.449Z,1075
2023-05-02T14:56:31.456Z,940
2023-05-02T15:01:31.483Z,834
2023-05-02T15:06:31.570Z,723
2023-05-02T15:17:50.477Z,730
2023-05-02T15:22:50.475Z,671
2023-05-02T15:27:50.435Z,637
2023-05-02T15:32:50.470Z,674
2023-05-02T15:37:50.572Z,615
2023-05-02T15:42:50.654Z,597
2023-05-02T15:47:50.535Z,604
2023-05-02T15:52:50.441Z,588
2023-05-02T15:57:50.409Z,578
2023-05-02T16:02:50.478Z,574
2023-05-02T16:07:50.431Z,563
2023-05-02T16:12:50.450Z,566
2023-05-02T16:17:50.526Z,560
2023-05-02T16:22:50.476Z,544
2023-05-02T16:27:50.460Z,530
2023-05-02T16:32:50.504Z,516
2023-05-02T16:37:50.431Z,503
2023-05-02T16:42:50.487Z,494
2023-05-02T16:47:50.488Z,481
2023-05-02T16:52:50.466Z,453
2023-05-02T16:57:50.483Z,449
2023-05-02T17:02:50.529Z,427
2023-05-02T17:07:50.445Z,395
2023-05-02T17:12:50.492Z,377
2023-05-02T17:17:50.506Z,360
2023-05-02T17:22:50.476Z,343
2023-05-02T17:27:50.466Z,334
2023-05-02T17:32:50.517Z,322
2023-05-02T17:37:50.437Z,306
2023-05-02T17:42:50.511Z,303
2023-05-02T17:47:50.489Z,296
2023-05-02T17:52:50.463Z,290
2023-05-02T17:57:50.450Z,285
2023-05-02T18:02:50.498Z,281
2023-05-02T18:07:50.460Z,280
2023-05-02T18:12:50.496Z,272
2023-05-02T18:17:50.535Z,271
2023-05-02T18:22:50.457Z,267
2023-05-02T18:27:50.458Z,265
2023-05-02T18:32:50.516Z,262
2023-05-02T18:37:50.651Z,259
2023-05-02T18:42:50.486Z,258
2023-05-02T18:47:50.530Z,0
2023-05-02T18:52:50.476Z,0
2023-05-02T18:57:50.500Z,0
2023-05-02T19:02:50.587Z,0
2023-05-02T19:07:50.493Z,0
2023-05-02T19:12:50.496Z,0
2023-05-02T19:17:50.607Z,0
2023-05-02T19:22:50.548Z,0
2023-05-02T19:27:50.532Z,0
2023-05-02T19:32:50.631Z,0
2023-05-02T19:37:50.508Z,0
2023-05-02T19:42:50.513Z,0
2023-05-02T19:47:50.516Z,0
2023-05-02T19:52:50.770Z,0
2023-05-02T19:57:50.501Z,0
2023-05-02T20:02:51.501Z,0
2023-05-02T20:07:50.513Z,0
2023-05-02T20:12:50.547Z,0
2023-05-02T20:17:50.533Z,0
2023-05-02T20:22:50.506Z,0
2023-05-02T20:27:50.462Z,0
2023-05-02T20:32:50.519Z,0
2023-05-02T20:37:50.521Z,0
2023-05-02T20:42:50.538Z,0
2023-05-02T20:47:50.584Z,0
2023-05-02T20:52:50.521Z,0
2023-05-02T20:57:50.529Z,0
2023-05-02T21:02:50.609Z,0
2023-05-02T21:07:50.518Z,0
2023-05-02T21:12:50.530Z,0
2023-05-02T21:17:50.557Z,0
2023-05-02T21:22:50.521Z,0
2023-05-02T21:27:50.539Z,0
2023-05-02T21:32:50.522Z,0
2023-05-02T21:37:50.522Z,0
2023-05-02T21:42:50.511Z,0
2023-05-02T21:47:50.556Z,0
2023-05-02T21:52:50.525Z,0
2023-05-02T21:57:50.557Z,0
2023-05-02T22:02:50.604Z,0
2023-05-02T22:07:50.577Z,0
2023-05-02T22:12:50.520Z,0
2023-05-02T22:17:50.594Z,0
2023-05-02T22:22:50.533Z,0
2023-05-02T22:27:50.504Z,0
2023-05-02T22:32:50.526Z,0
2023-05-02T22:37:50.525Z,0
2023-05-02T22:42:50.549Z,0
2023-05-02T22:47:50.566Z,0
2023-05-02T22:52:50.595Z,0
2023-05-02T22:57:50.522Z,0
2023-05-02T23:02:50.580Z,0
2023-05-02T23:07:50.591Z,0
2023-05-02T23:12:50.518Z,0
2023-05-02T23:17:50.533Z,0
2023-05-02T23:22:50.591Z,0
2023-05-02T23:27:50.560Z,0
2023-05-02T23:32:50.568Z,0
2023-05-02T23:37:50.560Z,0
2023-05-02T23:42:50.578Z,0
2023-05-02T23:47:50.589Z,0
2023-05-02T23:52:50.547Z,0
2023-05-02T23:57:50.538Z,0
